< < Back
Terminal Aerodrome Forecast


Current Version              Previous Versions:   1  2  3  4  5  6  7  8  9  

Terminal Aerodrome Forecast

138
FTUS44 KMRX 160428 AAE
TAFCHA
TAF AMD
KCHA 160428Z 1604/1624 00000KT P6SM SCT005 OVC015
      TEMPO 1604/1608 4SM BR OVC005
     FM161400 32006KT P6SM SCT040 BKN100
     FM162000 30007KT P6SM SCT050 BKN150=

Latest METAR

847
SAUS80 KWBC 160400
MTRCHA
METAR KCHA 160353Z 00000KT 6SM BR SCT005 BKN220 22/21 A3015 RMK AO2
SLP202 LAST T02220206


USA.gov is the U.S. government's official web portal to all federal, state and local government web resources and services.